Time;durP1;ratioP1;P1;durP2;ratioP2;P2;SDS_P1;SDS_P2;PMS_P1;PMS_P2;Temp;Humidity;BMP_temperature;BMP_pressure;BME280_temperature;BME280_humidity;BME280_pressure;Samples;Min_cycle;Max_cycle;Signal;HPM_P1;HPM_P2
2023/01/09 00:00:59;;;;;;;4.03;1.20;;;7.70;99.90;;;;;;5054274;28;20021;-73
2023/01/09 00:03:25;;;;;;;3.55;1.10;;;7.70;99.90;;;;;;5053727;28;20074;-73
2023/01/09 00:05:50;;;;;;;4.25;1.13;;;7.70;99.90;;;;;;5053507;28;20494;-72
2023/01/09 00:08:17;;;;;;;3.13;0.90;;;7.60;99.90;;;;;;5054394;28;20558;-72
2023/01/09 00:10:43;;;;;;;4.47;0.98;;;7.60;99.90;;;;;;5053236;28;20392;-73
2023/01/09 00:13:12;;;;;;;2.53;1.02;;;7.50;99.90;;;;;;5054117;28;20033;-73
2023/01/09 00:15:39;;;;;;;3.13;1.27;;;7.50;99.90;;;;;;5053983;28;20373;-72
2023/01/09 00:18:05;;;;;;;5.80;1.10;;;7.40;99.90;;;;;;5053101;28;20464;-73
2023/01/09 00:20:30;;;;;;;4.03;1.13;;;7.40;99.90;;;;;;5054163;28;20095;-72
2023/01/09 00:22:56;;;;;;;2.55;0.90;;;7.40;99.90;;;;;;5053654;28;20032;-73
2023/01/09 00:25:22;;;;;;;5.32;1.30;;;7.30;99.90;;;;;;5053598;28;20059;-72
2023/01/09 00:27:47;;;;;;;1.40;0.90;;;7.30;99.90;;;;;;5053871;28;20021;-73
2023/01/09 00:30:13;;;;;;;3.50;1.08;;;7.30;99.90;;;;;;5053361;28;20110;-73
2023/01/09 00:32:39;;;;;;;6.30;1.10;;;7.20;99.90;;;;;;5053132;28;20033;-73
2023/01/09 00:35:06;;;;;;;2.13;0.82;;;7.20;99.90;;;;;;5053525;28;20017;-73
2023/01/09 00:37:31;;;;;;;4.03;1.17;;;7.20;99.90;;;;;;5053369;28;20025;-73
2023/01/09 00:39:57;;;;;;;8.40;1.02;;;7.10;99.90;;;;;;5052438;28;20025;-73
2023/01/09 00:42:26;;;;;;;5.43;1.48;;;7.10;99.90;;;;;;5053162;28;20127;-72
2023/01/09 00:44:56;;;;;;;3.33;1.00;;;7.10;99.90;;;;;;5053005;28;20028;-73
2023/01/09 00:47:30;;;;;;;5.65;1.40;;;7.10;99.90;;;;;;5053089;28;20063;-73
2023/01/09 00:50:03;;;;;;;7.00;1.75;;;6.90;99.90;;;;;;5052780;28;20045;-73
2023/01/09 00:52:32;;;;;;;3.28;1.20;;;7.00;99.90;;;;;;5052631;28;20087;-73
2023/01/09 00:54:58;;;;;;;5.45;1.35;;;8.00;99.90;;;;;;5053238;28;20373;-73
2023/01/09 00:57:24;;;;;;;3.92;1.30;;;6.90;99.90;;;;;;5048727;28;20029;-73
2023/01/09 00:59:51;;;;;;;3.63;1.20;;;6.80;99.90;;;;;;5043830;28;20035;-72
2023/01/09 01:02:17;;;;;;;3.63;1.25;;;6.80;99.90;;;;;;5052430;28;20481;-72
2023/01/09 01:07:38;;;;;;;12.90;1.70;;;6.70;99.90;;;;;;5044458;28;20079;-73
2023/01/09 01:10:10;;;;;;;1.58;1.00;;;6.60;99.90;;;;;;5052438;28;20056;-72
2023/01/09 01:12:37;;;;;;;3.35;1.02;;;6.60;99.90;;;;;;5052102;28;20068;-72
2023/01/09 01:15:04;;;;;;;4.85;1.52;;;6.50;99.90;;;;;;5050241;28;20133;-72
2023/01/09 01:17:29;;;;;;;4.93;1.60;;;6.40;99.90;;;;;;5039493;28;20056;-72
2023/01/09 01:19:55;;;;;;;7.88;1.63;;;6.50;99.90;;;;;;5051716;28;20428;-73
2023/01/09 01:22:21;;;;;;;4.50;1.33;;;6.40;99.90;;;;;;5051444;28;20036;-73
2023/01/09 01:24:46;;;;;;;4.30;1.20;;;6.40;99.90;;;;;;5052061;28;20031;-73
2023/01/09 01:27:12;;;;;;;3.40;1.73;;;6.40;99.90;;;;;;5050981;28;20021;-72
2023/01/09 01:29:38;;;;;;;3.22;2.08;;;6.40;99.90;;;;;;5052308;28;20028;-73
2023/01/09 01:32:03;;;;;;;2.38;1.20;;;6.40;99.90;;;;;;5051733;28;20055;-73
2023/01/09 01:34:29;;;;;;;3.60;1.65;;;6.40;99.90;;;;;;5052238;28;20048;-73
2023/01/09 01:36:54;;;;;;;5.60;1.73;;;6.40;99.90;;;;;;5052283;28;20048;-73
2023/01/09 01:39:20;;;;;;;6.35;1.88;;;6.40;99.90;;;;;;5052841;28;20052;-73
2023/01/09 01:41:46;;;;;;;3.80;1.70;;;6.40;99.90;;;;;;5041437;28;20017;-72
2023/01/09 01:44:49;;;;;;;7.05;2.13;;;6.50;99.90;;;;;;5049080;28;20435;-73
2023/01/09 01:47:17;;;;;;;4.32;1.80;;;6.50;99.90;;;;;;5053028;28;20431;-73
2023/01/09 01:49:43;;;;;;;6.47;2.00;;;6.50;99.90;;;;;;5052251;28;20116;-73
2023/01/09 01:52:09;;;;;;;6.85;2.38;;;6.60;99.90;;;;;;5052581;28;20057;-73
2023/01/09 01:54:35;;;;;;;4.88;2.40;;;6.60;99.90;;;;;;5052467;28;20049;-73
2023/01/09 01:57:03;;;;;;;12.52;2.45;;;6.70;99.90;;;;;;5051822;28;20040;-73
2023/01/09 01:59:44;;;;;;;4.57;2.60;;;6.70;99.90;;;;;;5052295;28;20108;-73
2023/01/09 02:02:10;;;;;;;8.10;2.42;;;6.70;99.90;;;;;;5052202;28;20041;-73
2023/01/09 02:04:41;;;;;;;9.23;2.38;;;6.70;99.90;;;;;;5051274;28;20116;-73
2023/01/09 02:07:08;;;;;;;7.10;2.53;;;6.70;99.90;;;;;;5053053;28;20082;-73
2023/01/09 02:09:35;;;;;;;3.95;2.45;;;6.60;99.90;;;;;;5052530;28;20085;-71
2023/01/09 02:12:01;;;;;;;8.82;2.80;;;6.50;99.90;;;;;;5052209;28;20108;-72
2023/01/09 02:14:30;;;;;;;8.57;2.97;;;6.50;99.90;;;;;;5052667;28;20021;-73
2023/01/09 02:17:09;;;;;;;4.93;3.00;;;6.50;99.90;;;;;;5037478;28;20056;-72
2023/01/09 02:20:12;;;;;;;6.43;2.97;;;6.40;99.90;;;;;;5052338;28;20021;-72
2023/01/09 02:23:05;;;;;;;8.55;2.92;;;6.40;99.90;;;;;;5041877;28;20477;-72
2023/01/09 02:25:48;;;;;;;9.70;3.47;;;6.20;99.90;;;;;;5051199;28;20060;-73
2023/01/09 02:28:31;;;;;;;6.00;3.10;;;6.20;99.90;;;;;;5051758;28;20025;-73
2023/01/09 02:31:20;;;;;;;9.07;3.38;;;6.10;99.90;;;;;;5042326;28;20076;-72
2023/01/09 02:34:01;;;;;;;4.47;2.88;;;6.10;99.90;;;;;;5056441;28;20483;-72
2023/01/09 02:36:58;;;;;;;4.25;2.85;;;6.10;99.90;;;;;;5056460;28;20021;-73
2023/01/09 02:39:48;;;;;;;6.65;3.05;;;6.10;99.90;;;;;;5042873;28;20063;-72
2023/01/09 02:42:21;;;;;;;;;;;6.00;99.90;;;;;;5056123;28;20485;-71
2023/01/09 02:44:46;;;;;;;5.53;2.47;;;6.00;99.90;;;;;;5055298;28;20003;-72
2023/01/09 02:47:14;;;;;;;4.97;2.97;;;6.00;99.90;;;;;;5055358;28;20048;-72
2023/01/09 02:49:43;;;;;;;7.50;2.67;;;6.10;99.90;;;;;;5055637;28;20132;-73
2023/01/09 02:52:30;;;;;;;8.05;3.33;;;6.00;99.90;;;;;;5054256;28;20474;-73
2023/01/09 02:55:16;;;;;;;3.67;2.10;;;6.00;99.90;;;;;;5055292;28;20031;-73
2023/01/09 02:58:09;;;;;;;4.57;3.35;;;5.90;99.90;;;;;;5055309;28;20025;-72
2023/01/09 03:00:41;;;;;;;7.53;2.53;;;6.00;99.90;;;;;;5054634;28;20024;-72
2023/01/09 03:03:10;;;;;;;6.28;2.85;;;5.90;99.90;;;;;;5054898;28;20060;-73
2023/01/09 03:05:50;;;;;;;7.40;2.85;;;5.90;99.90;;;;;;5055440;28;20070;-74
2023/01/09 03:08:21;;;;;;;9.27;3.15;;;5.80;99.90;;;;;;5042653;28;20087;-72
2023/01/09 03:11:03;;;;;;;4.03;2.13;;;5.80;99.90;;;;;;5054826;28;20025;-72
2023/01/09 03:13:38;;;;;;;3.97;2.42;;;5.80;99.90;;;;;;5054860;28;20029;-73
2023/01/09 03:16:08;;;;;;;9.63;2.83;;;5.70;99.90;;;;;;5043120;28;20095;-73
2023/01/09 03:18:35;;;;;;;6.93;2.73;;;5.70;99.90;;;;;;5053329;28;20435;-73
2023/01/09 03:21:03;;;;;;;5.65;2.20;;;5.70;99.90;;;;;;5053653;28;20568;-72
2023/01/09 03:23:48;;;;;;;5.65;2.53;;;5.70;99.90;;;;;;5054742;28;20401;-72
2023/01/09 03:26:14;;;;;;;3.92;2.58;;;5.60;99.90;;;;;;5054659;28;20064;-72
2023/01/09 03:28:40;;;;;;;6.90;3.70;;;5.50;99.90;;;;;;5054105;28;20048;-73
2023/01/09 03:31:05;;;;;;;6.47;2.60;;;5.50;99.90;;;;;;5054461;28;20527;-73
2023/01/09 03:33:31;;;;;;;6.88;3.03;;;5.60;99.90;;;;;;5052914;28;20041;-72
2023/01/09 03:35:57;;;;;;;5.03;2.88;;;5.50;99.90;;;;;;5041089;28;20060;-73
2023/01/09 03:38:22;;;;;;;4.78;2.83;;;5.50;99.90;;;;;;5055715;28;20104;-73
2023/01/09 03:40:48;;;;;;;8.63;2.70;;;5.50;99.90;;;;;;5054141;28;20531;-72
2023/01/09 03:43:13;;;;;;;4.63;3.00;;;5.50;99.90;;;;;;5053552;28;20420;-73
2023/01/09 03:45:39;;;;;;;6.53;2.63;;;5.60;99.90;;;;;;5054385;28;20027;-72
2023/01/09 03:48:05;;;;;;;7.72;2.85;;;5.60;99.90;;;;;;5053341;28;20036;-73
2023/01/09 03:50:30;;;;;;;6.28;3.00;;;5.70;99.90;;;;;;5054060;28;20025;-73
2023/01/09 03:52:56;;;;;;;5.97;2.25;;;5.70;99.90;;;;;;5054110;28;20112;-72
2023/01/09 03:55:22;;;;;;;5.97;2.22;;;5.70;99.90;;;;;;5054053;28;20029;-73
2023/01/09 03:57:48;;;;;;;9.88;2.60;;;5.70;99.90;;;;;;5054243;28;20434;-72
2023/01/09 04:00:14;;;;;;;7.63;2.65;;;5.70;99.90;;;;;;5053544;28;20036;-72
2023/01/09 04:02:39;;;;;;;7.30;2.58;;;5.70;99.90;;;;;;5052743;28;20037;-73
2023/01/09 04:05:05;;;;;;;6.20;2.17;;;5.70;99.90;;;;;;5053731;28;20025;-72
2023/01/09 04:07:31;;;;;;;4.70;2.55;;;5.80;99.90;;;;;;5054074;28;20029;-72
2023/01/09 04:09:56;;;;;;;5.90;2.42;;;5.90;99.90;;;;;;5053550;28;20024;-72
2023/01/09 04:12:22;;;;;;;4.95;1.95;;;5.90;99.90;;;;;;5054025;28;20083;-73
2023/01/09 04:14:48;;;;;;;8.20;2.03;;;6.00;99.90;;;;;;5052521;28;20017;-73
2023/01/09 04:17:15;;;;;;;7.18;2.45;;;6.00;99.90;;;;;;5040690;28;20032;-72
2023/01/09 04:19:41;;;;;;;9.10;2.28;;;6.10;99.90;;;;;;5054266;28;20056;-72
2023/01/09 04:22:07;;;;;;;3.05;2.22;;;6.00;99.90;;;;;;5053197;28;20040;-73
2023/01/09 04:24:32;;;;;;;10.02;2.42;;;6.10;99.90;;;;;;5053080;28;20025;-73
2023/01/09 04:26:58;;;;;;;8.10;2.15;;;6.10;99.90;;;;;;5053546;28;20037;-72
2023/01/09 04:29:24;;;;;;;4.25;2.53;;;6.10;99.90;;;;;;5054139;28;20017;-73
2023/01/09 04:31:49;;;;;;;6.97;2.10;;;6.20;99.90;;;;;;5053025;28;20515;-72
2023/01/09 04:34:15;;;;;;;3.83;1.77;;;6.20;99.90;;;;;;5054404;28;20103;-72
2023/01/09 04:36:41;;;;;;;5.25;1.88;;;6.20;99.90;;;;;;5053370;28;20448;-72
2023/01/09 04:39:07;;;;;;;7.60;2.70;;;6.30;99.90;;;;;;5052498;28;20017;-72
2023/01/09 04:41:48;;;;;;;4.35;1.50;;;6.30;99.90;;;;;;5053260;28;20060;-73
2023/01/09 04:44:20;;;;;;;6.00;1.90;;;6.40;99.90;;;;;;5052088;28;20135;-73
2023/01/09 04:46:46;;;;;;;4.65;1.80;;;6.40;99.90;;;;;;5052922;28;20048;-73
2023/01/09 04:49:11;;;;;;;3.47;2.25;;;6.80;99.90;;;;;;5052843;28;20025;-72
2023/01/09 04:51:37;;;;;;;3.17;1.77;;;6.40;99.90;;;;;;5052398;28;20087;-72
2023/01/09 04:54:03;;;;;;;4.70;1.55;;;6.40;99.90;;;;;;5038384;28;20029;-73
2023/01/09 04:56:28;;;;;;;4.38;1.77;;;6.50;99.90;;;;;;5052661;28;20064;-73
2023/01/09 04:58:54;;;;;;;3.97;1.92;;;6.60;99.90;;;;;;5051810;28;20025;-73
2023/01/09 05:01:19;;;;;;;3.85;2.20;;;6.50;99.90;;;;;;5052611;28;20017;-72
2023/01/09 05:03:45;;;;;;;5.22;1.67;;;6.50;99.90;;;;;;5052781;28;20064;-73
2023/01/09 05:06:11;;;;;;;11.13;1.60;;;6.60;99.90;;;;;;5051563;28;20017;-73
2023/01/09 05:08:36;;;;;;;6.07;1.80;;;6.60;99.90;;;;;;5052595;28;20040;-73
2023/01/09 05:11:02;;;;;;;6.07;1.48;;;6.60;99.90;;;;;;5052222;28;20082;-73
2023/01/09 05:13:28;;;;;;;13.63;1.90;;;6.60;99.90;;;;;;5052085;28;20024;-74
2023/01/09 05:15:53;;;;;;;6.43;1.52;;;6.60;99.90;;;;;;5041662;28;20033;-72
2023/01/09 05:18:19;;;;;;;8.65;1.50;;;6.60;99.90;;;;;;5048670;28;20025;-72
2023/01/09 05:20:44;;;;;;;8.93;1.52;;;6.60;99.90;;;;;;5051809;28;20409;-72
2023/01/09 05:23:10;;;;;;;6.38;1.40;;;6.60;99.90;;;;;;5051676;28;20098;-73
2023/01/09 05:25:36;;;;;;;2.75;1.58;;;6.70;99.90;;;;;;5052529;28;20025;-72
2023/01/09 05:28:02;;;;;;;4.22;1.92;;;6.70;99.90;;;;;;5051257;28;20065;-74
2023/01/09 05:30:27;;;;;;;6.05;1.90;;;6.70;99.90;;;;;;5052217;28;20040;-73
2023/01/09 05:32:53;;;;;;;4.65;1.40;;;6.80;99.90;;;;;;5052289;28;20052;-73
2023/01/09 05:35:19;;;;;;;5.30;1.60;;;6.80;99.90;;;;;;5051244;28;20032;-72
2023/01/09 05:37:45;;;;;;;6.95;2.13;;;6.80;99.90;;;;;;5052319;28;20033;-72
2023/01/09 05:40:11;;;;;;;6.18;1.55;;;6.80;99.90;;;;;;5051518;28;20028;-73
2023/01/09 05:42:37;;;;;;;7.57;2.17;;;6.80;99.90;;;;;;5051513;28;20039;-72
2023/01/09 05:45:03;;;;;;;6.22;1.73;;;6.80;99.90;;;;;;5052174;28;20020;-72
2023/01/09 05:47:29;;;;;;;12.43;2.22;;;6.90;99.90;;;;;;5051174;28;20028;-73
2023/01/09 05:49:57;;;;;;;3.85;1.60;;;6.90;99.90;;;;;;5052410;28;20021;-73
2023/01/09 05:52:24;;;;;;;8.57;2.63;;;6.90;99.90;;;;;;5052309;28;20025;-74
2023/01/09 05:54:50;;;;;;;3.30;1.67;;;7.00;99.90;;;;;;5051685;28;20047;-72
2023/01/09 05:57:16;;;;;;;5.45;1.90;;;7.00;99.90;;;;;;5052413;28;20025;-72
2023/01/09 05:59:41;;;;;;;7.05;1.63;;;7.00;99.90;;;;;;5051716;28;20113;-73
2023/01/09 06:02:07;;;;;;;6.57;1.98;;;7.00;99.90;;;;;;5031273;28;20053;-73
2023/01/09 06:04:33;;;;;;;6.07;1.67;;;7.20;99.90;;;;;;5031684;28;20083;-73
2023/01/09 06:06:58;;;;;;;3.97;1.95;;;7.20;99.90;;;;;;5037049;28;20068;-72
2023/01/09 06:09:24;;;;;;;8.65;2.10;;;7.20;99.90;;;;;;5033398;28;20393;-73
2023/01/09 06:11:50;;;;;;;9.60;2.13;;;7.10;99.90;;;;;;5034448;28;20021;-73
2023/01/09 06:14:15;;;;;;;9.40;2.70;;;7.20;99.90;;;;;;5039165;28;20033;-73
2023/01/09 06:16:41;;;;;;;6.00;1.70;;;7.20;99.90;;;;;;5033872;28;20028;-72
2023/01/09 06:19:06;;;;;;;8.93;2.00;;;7.20;99.90;;;;;;5034852;28;20032;-72
2023/01/09 06:21:32;;;;;;;5.25;2.45;;;7.20;99.90;;;;;;5040950;28;20033;-73
2023/01/09 06:23:58;;;;;;;5.00;1.80;;;7.20;99.90;;;;;;5034576;28;20545;-73
2023/01/09 06:26:25;;;;;;;6.95;2.10;;;7.20;99.90;;;;;;5036643;28;20025;-73
2023/01/09 06:28:50;;;;;;;9.93;2.60;;;7.20;99.90;;;;;;5034278;28;20095;-73
2023/01/09 06:31:16;;;;;;;11.90;2.25;;;7.20;99.90;;;;;;5034887;28;20737;-73
2023/01/09 06:33:42;;;;;;;9.18;2.03;;;7.20;99.90;;;;;;5036554;28;20025;-74
2023/01/09 06:36:07;;;;;;;4.90;1.90;;;7.20;99.90;;;;;;5053879;28;20043;-73
2023/01/09 06:38:33;;;;;;;7.50;2.85;;;7.20;99.90;;;;;;5053841;28;20048;-74
2023/01/09 06:40:59;;;;;;;10.20;2.92;;;7.20;99.90;;;;;;5051884;28;20095;-73
2023/01/09 06:43:24;;;;;;;11.65;2.20;;;7.30;99.90;;;;;;5055545;28;20036;-74
2023/01/09 06:45:50;;;;;;;7.38;2.22;;;7.20;99.90;;;;;;5049178;28;20021;-73
2023/01/09 06:48:15;;;;;;;4.57;2.20;;;7.30;99.90;;;;;;5044585;28;20047;-73
2023/01/09 06:50:41;;;;;;;8.27;2.17;;;7.30;99.90;;;;;;5050402;28;20100;-74
2023/01/09 06:53:07;;;;;;;3.53;2.30;;;7.30;99.90;;;;;;5049442;28;20021;-73
2023/01/09 06:55:32;;;;;;;9.18;1.90;;;7.30;99.90;;;;;;5054413;28;20025;-74
2023/01/09 06:57:58;;;;;;;7.43;2.67;;;7.40;99.90;;;;;;5052046;28;20017;-74
2023/01/09 07:00:24;;;;;;;9.68;2.45;;;7.40;99.90;;;;;;5054625;28;20119;-74
2023/01/09 07:02:49;;;;;;;8.63;2.63;;;7.40;99.90;;;;;;5050186;28;20041;-75
2023/01/09 07:05:15;;;;;;;9.00;3.05;;;7.40;99.90;;;;;;5053081;28;20473;-74
2023/01/09 07:07:41;;;;;;;6.20;2.50;;;7.50;99.90;;;;;;5046350;28;20037;-73
2023/01/09 07:10:08;;;;;;;6.43;3.25;;;7.50;99.90;;;;;;5045351;28;20024;-73
2023/01/09 07:12:34;;;;;;;4.80;2.42;;;7.60;99.90;;;;;;5051875;28;20021;-74
2023/01/09 07:15:00;;;;;;;9.60;2.88;;;7.60;99.90;;;;;;5051700;28;20018;-75
2023/01/09 07:17:26;;;;;;;4.07;2.17;;;7.60;99.90;;;;;;5049928;28;20116;-74
2023/01/09 07:19:51;;;;;;;5.90;1.92;;;7.60;99.90;;;;;;5033766;28;20092;-73
2023/01/09 07:22:18;;;;;;;5.13;1.42;;;7.60;99.90;;;;;;5034005;28;20503;-73
2023/01/09 07:24:43;;;;;;;6.05;1.02;;;7.60;99.90;;;;;;5033449;28;20018;-73
2023/01/09 07:27:10;;;;;;;5.63;1.70;;;7.50;99.90;;;;;;5032938;28;20357;-74
2023/01/09 07:29:35;;;;;;;1.92;0.75;;;7.50;99.90;;;;;;5034417;28;20025;-73
2023/01/09 07:32:02;;;;;;;1.08;0.47;;;7.50;99.90;;;;;;5046702;28;20515;-73
2023/01/09 07:34:27;;;;;;;4.38;0.60;;;7.50;99.90;;;;;;5035092;28;20128;-73
2023/01/09 07:36:53;;;;;;;2.97;0.60;;;7.50;99.90;;;;;;5038793;28;20045;-75
2023/01/09 07:39:19;;;;;;;2.13;0.52;;;7.40;99.90;;;;;;5038430;28;20025;-76
2023/01/09 07:41:44;;;;;;;2.25;0.65;;;7.40;99.90;;;;;;5037986;28;20021;-76
2023/01/09 07:44:10;;;;;;;4.18;0.70;;;7.50;99.90;;;;;;5034209;28;20128;-73
2023/01/09 07:46:36;;;;;;;0.60;0.40;;;7.50;99.90;;;;;;5033685;28;20112;-74
2023/01/09 07:49:02;;;;;;;1.95;0.40;;;7.50;99.90;;;;;;5037208;28;20096;-74
2023/01/09 07:51:27;;;;;;;6.40;0.90;;;7.40;99.90;;;;;;5034072;28;20029;-76
2023/01/09 07:53:53;;;;;;;1.65;0.73;;;7.50;99.90;;;;;;5032847;28;20641;-75
2023/01/09 07:56:18;;;;;;;3.63;1.40;;;7.50;99.90;;;;;;5040170;28;20032;-75
2023/01/09 07:58:47;;;;;;;4.63;0.82;;;7.60;99.90;;;;;;5038160;28;20025;-74
2023/01/09 08:01:12;;;;;;;4.80;1.13;;;7.50;99.90;;;;;;5050392;28;20523;-74
2023/01/09 08:03:38;;;;;;;4.18;0.93;;;7.50;99.90;;;;;;5040307;28;20041;-74
2023/01/09 08:06:03;;;;;;;3.25;1.00;;;7.60;99.90;;;;;;5033489;28;20056;-74
2023/01/09 08:08:29;;;;;;;4.15;1.10;;;7.60;99.90;;;;;;5032342;28;20493;-75
2023/01/09 08:10:55;;;;;;;7.25;1.05;;;7.70;99.90;;;;;;5031908;28;20385;-74
2023/01/09 08:13:21;;;;;;;6.85;1.27;;;7.60;99.90;;;;;;5036127;28;20025;-74
2023/01/09 08:15:46;;;;;;;7.47;1.13;;;7.70;99.90;;;;;;5032951;28;20537;-74
2023/01/09 08:18:12;;;;;;;7.30;1.20;;;7.70;99.90;;;;;;5033564;28;20032;-74
2023/01/09 08:20:37;;;;;;;4.50;1.10;;;7.70;99.90;;;;;;5038870;28;20048;-73
2023/01/09 08:23:03;;;;;;;8.25;2.60;;;7.80;99.90;;;;;;5049993;28;20064;-74
2023/01/09 08:25:29;;;;;;;5.82;2.03;;;7.80;99.90;;;;;;5051645;28;20025;-74
2023/01/09 08:27:54;;;;;;;8.65;1.88;;;7.70;99.90;;;;;;5040338;28;20049;-74
2023/01/09 08:30:20;;;;;;;6.97;1.60;;;7.80;99.90;;;;;;5038744;28;20029;-75
2023/01/09 08:32:51;;;;;;;7.10;1.63;;;7.80;99.90;;;;;;5037066;28;20037;-73
2023/01/09 08:35:16;;;;;;;6.43;1.73;;;7.80;99.90;;;;;;5033276;28;20041;-77
2023/01/09 08:37:46;;;;;;;9.77;1.40;;;7.80;99.90;;;;;;5032986;28;20022;-74
2023/01/09 08:40:13;;;;;;;9.35;1.95;;;7.90;99.90;;;;;;5032864;28;20037;-74
2023/01/09 08:48:08;;;;;;;10.30;1.90;;;8.00;99.90;;;;;;5035766;28;20091;-75
2023/01/09 08:50:33;;;;;;;9.02;1.88;;;8.00;99.90;;;;;;5034256;28;20851;-75
2023/01/09 08:52:59;;;;;;;6.53;1.58;;;8.00;99.90;;;;;;5033738;28;20551;-74
2023/01/09 08:55:25;;;;;;;12.63;1.60;;;8.00;99.90;;;;;;5044538;28;20021;-75
2023/01/09 08:57:52;;;;;;;11.13;2.83;;;8.00;99.90;;;;;;5040651;28;20028;-75
2023/01/09 09:00:20;;;;;;;19.15;2.28;;;8.00;99.90;;;;;;5033066;28;20053;-76
2023/01/09 09:02:54;;;;;;;6.80;1.80;;;8.00;99.90;;;;;;5034189;28;20487;-75
2023/01/09 09:05:21;;;;;;;10.40;2.28;;;8.00;99.90;;;;;;5042928;28;20029;-76
2023/01/09 09:07:54;;;;;;;12.85;2.53;;;8.00;99.90;;;;;;5042183;28;20024;-74
2023/01/09 09:10:22;;;;;;;9.65;1.88;;;8.00;99.90;;;;;;5040072;28;20024;-75
2023/01/09 09:12:50;;;;;;;10.25;1.48;;;8.20;99.90;;;;;;5031092;28;20038;-75
2023/01/09 09:15:19;;;;;;;19.02;1.75;;;8.20;99.90;;;;;;5036178;28;20358;-75
2023/01/09 09:17:48;;;;;;;11.77;1.95;;;8.20;99.90;;;;;;5043414;28;20028;-75
2023/01/09 09:20:14;;;;;;;13.25;2.10;;;8.30;99.90;;;;;;5050389;28;20024;-74
2023/01/09 09:22:39;;;;;;;7.32;1.42;;;8.30;99.90;;;;;;5053063;28;20037;-74
2023/01/09 09:25:08;;;;;;;6.63;1.30;;;8.30;99.90;;;;;;5052737;28;20107;-74
2023/01/09 09:27:35;;;;;;;11.52;2.20;;;8.20;99.90;;;;;;5052061;28;20052;-74
2023/01/09 09:30:01;;;;;;;8.43;1.25;;;8.20;99.90;;;;;;5052247;28;20029;-75
2023/01/09 09:32:27;;;;;;;6.93;1.88;;;8.10;99.90;;;;;;5052044;28;20436;-73
2023/01/09 09:34:52;;;;;;;8.98;2.05;;;8.10;99.90;;;;;;5051770;28;20021;-73
2023/01/09 09:37:18;;;;;;;9.27;1.77;;;8.20;99.90;;;;;;5052515;28;20396;-74
2023/01/09 09:39:43;;;;;;;10.68;1.83;;;8.20;99.90;;;;;;5052583;28;20477;-73
2023/01/09 09:45:37;;;;;;;16.52;2.33;;;8.30;99.90;;;;;;5052858;28;20087;-74
2023/01/09 09:48:17;;;;;;;14.95;2.63;;;8.40;99.90;;;;;;5049068;28;20033;-74
2023/01/09 09:51:36;;;;;;;11.48;2.00;;;8.40;99.90;;;;;;5052200;28;20082;-74
2023/01/09 09:54:07;;;;;;;13.88;2.22;;;8.50;99.90;;;;;;5028740;28;20079;-74
2023/01/09 09:56:39;;;;;;;9.45;2.28;;;8.50;99.90;;;;;;5030197;28;20048;-74
2023/01/09 09:59:17;;;;;;;5.78;1.50;;;8.90;99.90;;;;;;5032804;28;20092;-74
2023/01/09 10:02:03;;;;;;;7.30;1.27;;;8.50;99.90;;;;;;5048786;28;20116;-73
2023/01/09 10:04:32;;;;;;;4.63;1.15;;;8.50;99.90;;;;;;5040961;28;20025;-73
2023/01/09 10:07:05;;;;;;;15.95;1.98;;;8.50;99.90;;;;;;5051900;28;20025;-75
2023/01/09 10:09:47;;;;;;;4.43;1.02;;;8.50;99.90;;;;;;5038490;28;20500;-74
2023/01/09 10:12:28;;;;;;;6.72;1.30;;;8.40;99.90;;;;;;5051971;28;20056;-75
2023/01/09 10:14:59;;;;;;;14.68;2.65;;;8.50;99.90;;;;;;5041548;28;20044;-75
2023/01/09 10:17:43;;;;;;;9.90;1.60;;;8.50;99.90;;;;;;5034616;28;20074;-75
2023/01/09 10:20:35;;;;;;;7.65;1.52;;;8.60;99.90;;;;;;5034321;28;20025;-76
2023/01/09 10:23:26;;;;;;;4.82;1.58;;;8.70;99.90;;;;;;5038849;28;20105;-75
2023/01/09 10:26:00;;;;;;;7.70;2.35;;;8.70;99.90;;;;;;5035736;28;20025;-74
2023/01/09 10:28:58;;;;;;;14.27;4.43;;;8.70;99.90;;;;;;5039260;28;20031;-74
2023/01/09 10:31:51;;;;;;;9.50;2.65;;;8.70;99.90;;;;;;5036554;28;20053;-74
2023/01/09 10:35:02;;;;;;;8.20;2.08;;;8.70;99.90;;;;;;5038397;28;20021;-75
2023/01/09 10:37:37;;;;;;;7.43;1.92;;;8.70;99.90;;;;;;5031304;28;20021;-76
2023/01/09 10:40:16;;;;;;;11.57;3.75;;;8.70;99.90;;;;;;5041580;28;20057;-74
2023/01/09 10:43:11;;;;;;;12.57;4.28;;;8.80;99.90;;;;;;5033643;28;20087;-73
2023/01/09 10:45:49;;;;;;;12.82;2.22;;;8.80;99.90;;;;;;5037393;28;20037;-74
2023/01/09 10:48:35;;;;;;;10.05;2.03;;;8.80;99.90;;;;;;5031656;28;20099;-73
2023/01/09 10:51:03;;;;;;;8.88;1.80;;;8.80;99.90;;;;;;5031997;28;20028;-75
2023/01/09 10:53:39;;;;;;;9.25;1.55;;;8.80;99.90;;;;;;5035895;28;20026;-74
2023/01/09 10:56:14;;;;;;;13.15;2.08;;;8.80;99.90;;;;;;5039420;28;20025;-73
2023/01/09 10:58:39;;;;;;;10.77;1.90;;;8.80;99.90;;;;;;5035817;28;20022;-73
2023/01/09 11:01:06;;;;;;;6.50;2.13;;;8.80;99.90;;;;;;5034698;28;20373;-73
2023/01/09 11:03:32;;;;;;;7.72;1.40;;;8.80;99.90;;;;;;5042055;28;20032;-73
2023/01/09 11:05:59;;;;;;;12.52;2.08;;;8.80;99.90;;;;;;5041331;28;20021;-72
2023/01/09 11:08:43;;;;;;;7.10;2.00;;;8.80;99.90;;;;;;5032733;28;20471;-73
2023/01/09 11:11:09;;;;;;;11.93;2.10;;;8.80;99.90;;;;;;5031846;28;20028;-73
2023/01/09 11:13:42;;;;;;;9.98;2.80;;;8.90;99.90;;;;;;5036630;28;20021;-73
2023/01/09 11:16:20;;;;;;;16.50;3.67;;;9.40;99.90;;;;;;5032459;28;20064;-72
2023/01/09 11:18:54;;;;;;;10.75;2.25;;;8.80;99.90;;;;;;5038986;28;20188;-73
2023/01/09 11:21:34;;;;;;;12.85;3.05;;;8.80;99.90;;;;;;5037596;28;20632;-73
2023/01/09 11:24:20;;;;;;;20.57;3.10;;;8.80;99.90;;;;;;5037703;28;20037;-72
2023/01/09 11:26:50;;;;;;;14.85;2.00;;;8.90;99.90;;;;;;5033632;28;20055;-73
2023/01/09 11:29:23;;;;;;;10.27;2.72;;;9.00;99.90;;;;;;5034455;28;20497;-73
2023/01/09 11:31:55;;;;;;;15.57;2.35;;;8.90;99.90;;;;;;5034253;28;20045;-73
2023/01/09 11:34:27;;;;;;;12.75;1.80;;;9.00;99.90;;;;;;5033943;28;20075;-74
2023/01/09 11:37:03;;;;;;;8.85;1.95;;;9.00;99.90;;;;;;5033953;28;20025;-73
2023/01/09 11:39:31;;;;;;;18.00;2.35;;;9.00;99.90;;;;;;5034225;28;20450;-73
2023/01/09 11:42:00;;;;;;;11.02;2.92;;;9.00;99.90;;;;;;5034171;28;20030;-72
2023/01/09 11:44:27;;;;;;;10.48;2.78;;;9.00;99.90;;;;;;5034272;28;20036;-73
2023/01/09 11:46:53;;;;;;;16.17;3.08;;;9.10;99.90;;;;;;5033385;28;20412;-73
2023/01/09 11:49:21;;;;;;;15.82;3.50;;;9.10;99.90;;;;;;5033885;28;20017;-74
2023/01/09 11:52:18;;;;;;;12.27;2.92;;;9.20;99.90;;;;;;5034424;28;20041;-74
2023/01/09 11:55:08;;;;;;;14.02;2.70;;;9.20;99.90;;;;;;5035736;28;20049;-74
2023/01/09 11:57:34;;;;;;;14.65;2.20;;;9.30;99.90;;;;;;5047054;28;20075;-74
2023/01/09 12:00:22;;;;;;;17.17;3.22;;;9.50;99.90;;;;;;5049244;28;20037;-74
2023/01/09 12:03:03;;;;;;;14.52;2.30;;;9.60;99.90;;;;;;5046709;28;20032;-74
2023/01/09 12:05:47;;;;;;;15.98;2.80;;;9.70;99.90;;;;;;5055727;28;20032;-74
2023/01/09 12:08:38;;;;;;;21.02;2.30;;;9.70;99.90;;;;;;5046235;28;20029;-75
2023/01/09 12:11:13;;;;;;;11.98;2.25;;;9.70;99.90;;;;;;5035307;28;20417;-73
2023/01/09 12:14:08;;;;;;;9.48;2.85;;;9.70;99.90;;;;;;5033216;28;20639;-73
2023/01/09 12:16:38;;;;;;;11.77;2.15;;;9.60;99.90;;;;;;5034716;28;20048;-73
2023/01/09 12:19:36;;;;;;;13.80;2.92;;;9.50;99.90;;;;;;5053496;28;20102;-73
2023/01/09 12:22:26;;;;;;;11.10;2.53;;;9.50;99.90;;;;;;5046053;28;20103;-74
2023/01/09 12:25:29;;;;;;;13.10;2.92;;;9.40;99.90;;;;;;5036019;28;20497;-73
2023/01/09 12:28:24;;;;;;;23.83;4.82;;;9.30;99.90;;;;;;5047781;28;20029;-73
2023/01/09 12:31:22;;;;;;;12.63;3.15;;;9.20;99.90;;;;;;5048557;28;20036;-73
2023/01/09 12:34:22;;;;;;;11.73;4.15;;;9.20;99.90;;;;;;5039891;28;20032;-73
2023/01/09 12:37:23;;;;;;;9.35;4.18;;;9.10;99.90;;;;;;5044523;28;20447;-73
2023/01/09 12:40:07;;;;;;;14.18;3.40;;;9.00;99.90;;;;;;5033364;28;20044;-72
2023/01/09 12:43:03;;;;;;;11.18;4.35;;;9.00;99.90;;;;;;5031815;28;20500;-73
2023/01/09 12:45:50;;;;;;;18.45;7.10;;;9.00;99.90;;;;;;5031320;28;20052;-73
2023/01/09 12:48:47;;;;;;;21.40;5.30;;;9.10;99.90;;;;;;5033906;28;20018;-73
2023/01/09 12:51:38;;;;;;;8.60;2.72;;;9.10;99.90;;;;;;5037423;28;20029;-73
2023/01/09 12:54:24;;;;;;;14.07;2.63;;;9.10;99.90;;;;;;5035810;28;20036;-74
2023/01/09 12:56:50;;;;;;;15.15;2.17;;;9.20;99.90;;;;;;5031662;28;20433;-73
2023/01/09 12:59:29;;;;;;;9.23;1.63;;;9.20;99.90;;;;;;5033271;28;20077;-73
2023/01/09 13:02:10;;;;;;;12.02;1.90;;;9.30;99.90;;;;;;5032297;28;20022;-73
2023/01/09 13:04:44;;;;;;;8.52;2.00;;;9.30;99.90;;;;;;5031977;28;20021;-73
2023/01/09 13:07:17;;;;;;;16.20;3.17;;;9.10;99.90;;;;;;5032807;28;20081;-74
2023/01/09 13:09:52;;;;;;;14.40;3.50;;;9.30;99.90;;;;;;5033009;28;20036;-73
2023/01/09 13:12:21;;;;;;;7.90;2.67;;;9.30;99.90;;;;;;5032208;28;20466;-72
2023/01/09 13:15:34;;;;;;;10.23;2.80;;;9.20;99.90;;;;;;5032573;28;20028;-74
2023/01/09 13:18:30;;;;;;;12.07;2.38;;;9.30;99.90;;;;;;5047333;28;20036;-72
2023/01/09 13:20:56;;;;;;;11.20;2.17;;;9.30;99.90;;;;;;5037262;28;20025;-74
2023/01/09 13:23:48;;;;;;;10.63;1.83;;;9.50;99.90;;;;;;5033794;28;20061;-74
2023/01/09 13:26:20;;;;;;;10.77;1.80;;;9.50;99.90;;;;;;5034446;28;20029;-73
2023/01/09 13:28:51;;;;;;;10.30;2.20;;;9.70;99.90;;;;;;5032488;28;20056;-74